createdAt,value
2022-09-12T00:00:48.852Z,72.10
2022-09-12T00:03:20.634Z,71.86
2022-09-12T00:05:50.154Z,72.10
2022-09-12T00:08:19.226Z,71.87
2022-09-12T00:10:50.269Z,72.46
2022-09-12T00:13:19.401Z,72.44
2022-09-12T00:15:48.743Z,72.72
2022-09-12T00:18:18.959Z,73.67
2022-09-12T00:20:49.304Z,73.62
2022-09-12T00:23:24.956Z,73.31
2022-09-12T00:25:56.200Z,74.10
2022-09-12T00:28:30.521Z,74.05
2022-09-12T00:30:59.482Z,74.04
2022-09-12T00:33:28.847Z,74.56
2022-09-12T00:35:57.843Z,74.04
2022-09-12T00:38:26.994Z,74.50
2022-09-12T00:40:58.239Z,75.45
2022-09-12T00:43:38.864Z,75.54
2022-09-12T00:46:16.593Z,75.03
2022-09-12T00:48:51.481Z,74.99
2022-09-12T00:51:25.851Z,75.02
2022-09-12T00:53:56.979Z,75.37
2022-09-12T00:56:35.092Z,76.60
2022-09-12T00:59:09.018Z,76.92
2022-09-12T01:01:38.987Z,77.14
2022-09-12T01:04:09.002Z,77.44
2022-09-12T01:06:41.702Z,78.09
2022-09-12T01:09:14.403Z,78.29
2022-09-12T01:11:48.215Z,80.06
2022-09-12T01:14:19.364Z,79.41
2022-09-12T01:16:53.708Z,80.59
2022-09-12T01:19:56.892Z,81.04
2022-09-12T01:22:45.726Z,80.59
2022-09-12T01:25:28.508Z,80.69
2022-09-12T01:28:32.936Z,81.09
2022-09-12T01:31:09.864Z,81.01
2022-09-12T01:33:58.232Z,81.85
2022-09-12T01:36:38.736Z,81.08
2022-09-12T01:39:14.376Z,80.60
2022-09-12T01:41:54.248Z,80.77
2022-09-12T01:44:30.577Z,80.79
2022-09-12T01:47:08.142Z,81.30
2022-09-12T01:49:42.929Z,81.45
2022-09-12T01:52:18.049Z,82.15
2022-09-12T01:54:52.848Z,81.85
2022-09-12T01:57:27.319Z,81.53
2022-09-12T02:02:52.973Z,81.63
2022-09-12T02:05:29.568Z,82.01
2022-09-12T02:08:04.622Z,81.59
2022-09-12T02:10:39.756Z,81.65
2022-09-12T02:13:20.049Z,82.18
2022-09-12T02:15:57.890Z,81.63
2022-09-12T02:18:32.761Z,81.92
2022-09-12T02:21:10.608Z,81.85
2022-09-12T02:23:45.469Z,81.82
2022-09-12T02:26:21.015Z,81.91
2022-09-12T02:28:52.273Z,81.32
2022-09-12T02:31:27.918Z,82.22
2022-09-12T02:34:11.403Z,81.87
2022-09-12T02:36:59.754Z,82.27
2022-09-12T02:39:29.137Z,81.48
2022-09-12T02:42:05.966Z,82.15
2022-09-12T02:44:37.969Z,82.07
2022-09-12T02:49:49.563Z,81.94
2022-09-12T02:52:20.289Z,82.18
2022-09-12T02:54:55.322Z,82.19
2022-09-12T02:57:29.570Z,82.32
2022-09-12T03:00:07.990Z,82.13
2022-09-12T03:02:53.884Z,82.82
2022-09-12T03:05:39.479Z,82.70
2022-09-12T03:08:25.612Z,82.90
2022-09-12T03:11:26.086Z,82.59
2022-09-12T03:14:05.601Z,82.35
2022-09-12T03:16:44.894Z,82.24
2022-09-12T03:19:23.263Z,82.50
2022-09-12T03:22:10.145Z,81.88
2022-09-12T03:24:45.817Z,81.39
2022-09-12T03:29:59.713Z,81.70
2022-09-12T03:32:45.101Z,82.22
2022-09-12T03:35:23.167Z,82.45
2022-09-12T03:37:55.039Z,82.04
2022-09-12T03:40:24.257Z,81.62
2022-09-12T03:42:53.264Z,81.25
2022-09-12T03:45:22.552Z,81.18
2022-09-12T03:47:56.799Z,81.91
2022-09-12T03:50:34.129Z,81.43
2022-09-12T03:53:05.681Z,81.43
2022-09-12T03:58:11.170Z,81.69
2022-09-12T04:00:42.509Z,82.29
2022-09-12T04:03:12.061Z,81.99
2022-09-12T04:05:41.138Z,82.11
2022-09-12T04:08:14.142Z,82.66
2022-09-12T04:10:43.634Z,82.42
2022-09-12T04:13:17.986Z,82.29
2022-09-12T04:15:57.961Z,83.15
2022-09-12T04:18:27.104Z,82.85
2022-09-12T04:20:56.471Z,83.45
2022-09-12T04:23:32.644Z,83.95
2022-09-12T04:26:03.439Z,84.34
2022-09-12T04:28:32.702Z,84.52
2022-09-12T04:31:08.604Z,85.24
2022-09-12T04:33:43.630Z,84.91
2022-09-12T04:36:31.360Z,85.77
2022-09-12T04:39:03.339Z,85.59
2022-09-12T04:41:34.300Z,85.54
2022-09-12T04:44:12.118Z,85.61
2022-09-12T04:46:44.268Z,86.15
2022-09-12T04:49:14.306Z,85.77
2022-09-12T04:51:44.543Z,86.03
2022-09-12T04:54:18.218Z,85.70
2022-09-12T04:56:50.178Z,86.16
2022-09-12T04:59:25.490Z,86.02
2022-09-12T05:02:00.963Z,86.28
2022-09-12T05:04:36.198Z,85.99
2022-09-12T05:07:05.476Z,86.23
2022-09-12T05:09:41.765Z,86.37
2022-09-12T05:12:10.893Z,85.81
2022-09-12T05:14:40.224Z,86.14
2022-09-12T05:17:09.567Z,85.60
2022-09-12T05:19:38.807Z,85.44
2022-09-12T05:22:08.091Z,85.70
2022-09-12T05:24:50.590Z,86.37
2022-09-12T05:27:20.579Z,86.17
2022-09-12T05:29:50.049Z,85.96
2022-09-12T05:32:19.252Z,87.02
2022-09-12T05:34:48.570Z,86.30
2022-09-12T05:37:18.479Z,86.39
2022-09-12T05:39:49.608Z,85.94
2022-09-12T05:42:18.686Z,86.08
2022-09-12T05:44:49.743Z,86.27
2022-09-12T05:47:19.134Z,86.16
2022-09-12T05:49:50.862Z,85.27
2022-09-12T05:52:19.948Z,84.65
2022-09-12T05:54:50.820Z,84.98
2022-09-12T05:57:20.011Z,84.74
2022-09-12T05:59:49.381Z,85.39
2022-09-12T06:02:18.770Z,85.33
2022-09-12T06:04:48.438Z,85.41
2022-09-12T06:07:27.778Z,85.45
2022-09-12T06:09:59.830Z,86.47
2022-09-12T06:12:39.058Z,86.32
2022-09-12T06:15:09.445Z,86.20
2022-09-12T06:17:38.512Z,86.64
2022-09-12T06:20:14.019Z,87.20
2022-09-12T06:22:43.730Z,87.46
2022-09-12T06:25:14.924Z,87.58
2022-09-12T06:27:43.926Z,87.41
2022-09-12T06:30:25.625Z,87.96
2022-09-12T06:32:56.411Z,87.75
2022-09-12T06:35:26.220Z,88.26
2022-09-12T06:38:00.251Z,88.52
2022-09-12T06:40:36.630Z,88.31
2022-09-12T06:43:05.669Z,87.61
2022-09-12T06:45:35.387Z,87.54
2022-09-12T06:48:05.327Z,87.00
2022-09-12T06:50:34.435Z,86.98
2022-09-12T06:53:03.763Z,86.25
2022-09-12T06:55:34.850Z,85.15
2022-09-12T06:58:14.939Z,84.63
2022-09-12T07:00:43.991Z,84.21
2022-09-12T07:03:13.402Z,83.32
2022-09-12T07:05:42.399Z,82.79
2022-09-12T07:08:16.542Z,82.06
2022-09-12T07:10:47.565Z,81.51
2022-09-12T07:13:24.152Z,80.80
2022-09-12T07:15:53.543Z,80.29
2022-09-12T07:18:27.715Z,79.84
2022-09-12T07:20:56.888Z,79.44
2022-09-12T07:23:25.869Z,78.40
2022-09-12T07:25:58.049Z,77.59
2022-09-12T07:28:29.818Z,76.75
2022-09-12T07:30:59.819Z,75.78
2022-09-12T07:33:30.606Z,76.36
2022-09-12T07:36:06.012Z,76.19
2022-09-12T07:38:35.197Z,76.81
2022-09-12T07:41:12.609Z,76.76
2022-09-12T07:43:42.092Z,76.53
2022-09-12T07:46:11.982Z,76.52
2022-09-12T07:48:41.976Z,77.28
2022-09-12T07:51:12.918Z,77.54
2022-09-12T07:53:43.777Z,78.07
2022-09-12T07:56:15.349Z,78.28
2022-09-12T07:58:45.261Z,77.90
2022-09-12T08:01:20.974Z,78.19
2022-09-12T08:03:52.556Z,78.37
2022-09-12T08:06:23.890Z,78.44
2022-09-12T08:08:53.799Z,77.98
2022-09-12T08:11:27.412Z,78.33
2022-09-12T08:13:57.789Z,78.84
2022-09-12T08:16:29.872Z,78.34
2022-09-12T08:18:59.631Z,77.75
2022-09-12T08:21:35.425Z,76.62
2022-09-12T08:24:06.863Z,76.85
2022-09-12T08:26:37.969Z,76.11
2022-09-12T08:29:07.129Z,76.13
2022-09-12T08:31:36.934Z,76.37
2022-09-12T08:34:07.676Z,76.59
2022-09-12T08:36:37.250Z,76.20
2022-09-12T08:39:16.078Z,76.26
2022-09-12T08:41:49.305Z,75.34
2022-09-12T08:44:44.152Z,75.36
2022-09-12T08:47:24.458Z,74.29
2022-09-12T08:50:14.584Z,73.67
2022-09-12T08:52:52.660Z,73.14
2022-09-12T08:58:15.664Z,71.55
2022-09-12T09:00:53.603Z,70.18
2022-09-12T09:03:46.324Z,69.88
2022-09-12T09:06:31.166Z,68.72
2022-09-12T09:09:07.688Z,68.74
2022-09-12T09:11:50.702Z,68.01
2022-09-12T09:14:51.451Z,67.84
2022-09-12T09:17:33.148Z,67.21
2022-09-12T09:20:11.327Z,66.32
2022-09-12T09:22:45.775Z,66.96
2022-09-12T09:25:22.886Z,66.92
2022-09-12T09:28:07.616Z,66.93
2022-09-12T09:30:39.507Z,66.24
2022-09-12T09:33:12.201Z,65.91
2022-09-12T09:35:47.041Z,65.92
2022-09-12T09:38:27.147Z,65.99
2022-09-12T09:41:14.369Z,65.31
2022-09-12T09:43:44.166Z,65.08
2022-09-12T09:46:15.830Z,64.79
2022-09-12T09:48:49.119Z,64.79
2022-09-12T09:51:24.379Z,64.41
2022-09-12T09:53:56.278Z,64.06
2022-09-12T09:56:29.411Z,64.08
2022-09-12T09:59:03.876Z,62.93
2022-09-12T10:01:36.297Z,62.66
2022-09-12T10:04:06.953Z,62.40
2022-09-12T10:06:39.744Z,60.96
2022-09-12T10:09:27.657Z,60.69
2022-09-12T10:11:58.926Z,60.72
2022-09-12T10:14:43.221Z,60.95
2022-09-12T10:17:34.222Z,61.39
2022-09-12T10:20:22.740Z,60.83
2022-09-12T10:22:52.225Z,60.84
2022-09-12T10:25:22.422Z,61.04
2022-09-12T10:27:56.896Z,61.66
2022-09-12T10:30:31.154Z,61.83
2022-09-12T10:33:14.762Z,61.55
2022-09-12T10:35:51.560Z,61.73
2022-09-12T10:38:26.348Z,61.53
2022-09-12T10:41:01.206Z,62.20
2022-09-12T10:43:36.887Z,62.27
2022-09-12T10:46:29.583Z,61.65
2022-09-12T10:49:37.675Z,61.16
2022-09-12T10:52:22.925Z,61.23
2022-09-12T10:54:52.762Z,60.93
2022-09-12T10:57:50.790Z,60.43
2022-09-12T11:00:27.282Z,59.47
2022-09-12T11:03:05.556Z,59.54
2022-09-12T11:05:52.804Z,58.82
2022-09-12T11:08:57.367Z,58.45
2022-09-12T11:11:38.852Z,57.27
2022-09-12T11:14:26.322Z,57.83
2022-09-12T11:17:11.644Z,57.66
2022-09-12T11:20:00.728Z,58.23
2022-09-12T11:22:45.784Z,57.86
2022-09-12T11:25:30.967Z,57.89
2022-09-12T11:28:20.936Z,58.35
2022-09-12T11:31:15.331Z,57.93
2022-09-12T11:33:45.960Z,58.29
2022-09-12T11:36:28.781Z,58.55
2022-09-12T11:39:14.775Z,57.96
2022-09-12T11:41:47.593Z,57.66
2022-09-12T11:44:24.900Z,57.37
2022-09-12T11:46:54.603Z,57.67
2022-09-12T11:49:35.283Z,57.76
2022-09-12T11:52:15.537Z,56.74
2022-09-12T11:54:53.857Z,56.47
2022-09-12T11:57:35.785Z,56.92
2022-09-12T12:00:19.440Z,56.33
2022-09-12T12:03:00.608Z,56.38
2022-09-12T12:05:36.140Z,55.78
2022-09-12T12:08:08.068Z,56.10
2022-09-12T12:10:39.751Z,56.24
2022-09-12T12:13:18.291Z,56.82
2022-09-12T12:15:50.634Z,57.41
2022-09-12T12:18:23.610Z,58.37
2022-09-12T12:20:53.581Z,58.03
2022-09-12T12:23:28.774Z,57.66
2022-09-12T12:26:02.202Z,57.56
2022-09-12T12:29:00.650Z,57.24
2022-09-12T12:31:31.238Z,56.94
2022-09-12T12:34:23.668Z,57.28
2022-09-12T12:36:52.748Z,57.22
2022-09-12T12:40:00.753Z,57.11
2022-09-12T12:43:10.797Z,56.68
2022-09-12T12:45:51.800Z,56.71
2022-09-12T12:48:22.426Z,57.27
2022-09-12T12:57:04.367Z,58.11
2022-09-12T12:59:33.940Z,57.41
2022-09-12T13:02:03.272Z,57.88
2022-09-12T13:04:34.966Z,57.25
2022-09-12T13:07:08.651Z,57.81
2022-09-12T13:09:46.108Z,58.23
2022-09-12T13:12:25.848Z,58.08
2022-09-12T13:15:01.358Z,58.54
2022-09-12T13:17:43.029Z,57.95
2022-09-12T13:20:30.958Z,57.73
2022-09-12T13:23:00.563Z,57.41
2022-09-12T13:25:37.750Z,57.08
2022-09-12T13:28:19.626Z,57.30
2022-09-12T13:30:56.641Z,56.51
2022-09-12T13:33:36.684Z,56.64
2022-09-12T13:36:20.685Z,56.54
2022-09-12T13:39:05.849Z,56.47
2022-09-12T13:41:53.512Z,56.37
2022-09-12T13:44:26.255Z,56.49
2022-09-12T13:46:57.562Z,56.55
2022-09-12T13:49:34.569Z,56.44
2022-09-12T13:52:07.141Z,56.47
2022-09-12T13:54:39.776Z,56.27
2022-09-12T13:57:30.458Z,55.95
2022-09-12T14:00:05.434Z,56.34
2022-09-12T14:02:37.378Z,55.43
2022-09-12T14:05:19.656Z,55.71
2022-09-12T14:07:56.574Z,55.42
2022-09-12T14:10:34.353Z,55.52
2022-09-12T14:13:06.768Z,55.71
2022-09-12T14:15:39.490Z,54.97
2022-09-12T14:18:10.026Z,54.98
2022-09-12T14:20:42.537Z,55.04
2022-09-12T14:23:21.070Z,55.40
2022-09-12T14:25:51.886Z,55.72
2022-09-12T14:28:23.634Z,55.82
2022-09-12T14:31:06.752Z,55.62
2022-09-12T14:33:53.948Z,56.48
2022-09-12T14:36:27.207Z,56.94
2022-09-12T14:39:04.417Z,56.12
2022-09-12T14:41:37.822Z,56.77
2022-09-12T14:44:10.573Z,56.68
2022-09-12T14:46:52.477Z,57.20
2022-09-12T14:49:28.584Z,57.37
2022-09-12T14:52:02.961Z,57.65
2022-09-12T14:54:47.146Z,57.47
2022-09-12T14:57:34.105Z,57.19
2022-09-12T15:00:21.849Z,56.62
2022-09-12T15:02:55.080Z,56.71
2022-09-12T15:05:29.594Z,56.64
2022-09-12T15:08:01.185Z,56.50
2022-09-12T15:10:33.256Z,56.59
2022-09-12T15:13:13.768Z,56.79
2022-09-12T15:15:44.646Z,56.75
2022-09-12T15:18:21.769Z,57.33
2022-09-12T15:20:53.529Z,57.25
2022-09-12T15:23:31.285Z,57.08
2022-09-12T15:26:00.949Z,57.45
2022-09-12T15:28:31.862Z,58.18
2022-09-12T15:31:07.801Z,58.62
2022-09-12T15:33:39.184Z,58.34
2022-09-12T15:36:17.242Z,58.62
2022-09-12T15:38:52.409Z,58.90
2022-09-12T15:41:33.334Z,58.65
2022-09-12T15:44:07.676Z,58.70
2022-09-12T15:46:36.939Z,59.30
2022-09-12T15:49:08.851Z,59.48
2022-09-12T15:51:38.407Z,59.56
2022-09-12T15:54:07.764Z,60.23
2022-09-12T15:56:36.968Z,59.77
2022-09-12T15:59:07.902Z,59.93
2022-09-12T16:01:37.306Z,59.54
2022-09-12T16:04:23.398Z,60.19
2022-09-12T16:06:54.946Z,60.27
2022-09-12T16:12:00.135Z,60.13
2022-09-12T16:14:29.408Z,59.89
2022-09-12T16:17:03.990Z,59.82
2022-09-12T16:19:35.208Z,60.48
2022-09-12T16:22:04.572Z,61.00
2022-09-12T16:24:33.608Z,60.83
2022-09-12T16:27:02.930Z,61.06
2022-09-12T16:29:32.569Z,61.45
2022-09-12T16:32:02.265Z,61.28
2022-09-12T16:34:31.346Z,61.14
2022-09-12T16:37:02.675Z,61.13
2022-09-12T16:39:31.981Z,61.80
2022-09-12T16:42:01.221Z,61.54
2022-09-12T16:44:31.704Z,61.46
2022-09-12T16:47:00.809Z,60.90
2022-09-12T16:49:30.834Z,60.98
2022-09-12T16:52:02.501Z,61.34
2022-09-12T16:54:31.535Z,60.69
2022-09-12T16:57:01.252Z,61.02
2022-09-12T16:59:30.606Z,61.37
2022-09-12T17:01:59.948Z,61.51
2022-09-12T17:04:30.096Z,61.31
2022-09-12T17:06:59.778Z,61.28
2022-09-12T17:09:36.019Z,61.60
2022-09-12T17:12:06.223Z,61.26
2022-09-12T17:14:35.492Z,61.62
2022-09-12T17:17:07.155Z,61.62
2022-09-12T17:19:36.381Z,61.33
2022-09-12T17:22:05.777Z,61.10
2022-09-12T17:24:37.095Z,61.24
2022-09-12T17:27:06.502Z,61.12
2022-09-12T17:29:36.718Z,60.92
2022-09-12T17:32:14.429Z,61.33
2022-09-12T17:34:46.243Z,61.31
2022-09-12T17:37:15.578Z,61.06
2022-09-12T17:39:58.289Z,61.19
2022-09-12T17:42:28.249Z,60.98
2022-09-12T17:44:57.960Z,61.19
2022-09-12T17:47:38.844Z,60.74
2022-09-12T17:50:30.407Z,61.05
2022-09-12T17:52:59.511Z,60.76
2022-09-12T17:55:31.928Z,60.62
2022-09-12T17:58:09.479Z,61.04
2022-09-12T18:00:56.730Z,60.88
2022-09-12T18:03:28.682Z,60.56
2022-09-12T18:05:58.713Z,60.75
2022-09-12T18:08:27.745Z,60.77
2022-09-12T18:11:06.444Z,61.06
2022-09-12T18:13:38.343Z,60.96
2022-09-12T18:16:10.142Z,61.25
2022-09-12T18:18:39.349Z,60.90
2022-09-12T18:21:10.384Z,61.07
2022-09-12T18:23:39.770Z,60.87
2022-09-12T18:26:13.548Z,61.17
2022-09-12T18:28:46.159Z,61.28
2022-09-12T18:31:18.174Z,61.36
2022-09-12T18:33:47.868Z,61.37
2022-09-12T18:36:19.153Z,61.47
2022-09-12T18:38:49.504Z,61.78
2022-09-12T18:41:22.460Z,61.39
2022-09-12T18:44:06.456Z,61.64
2022-09-12T18:46:37.395Z,61.47
2022-09-12T18:49:07.337Z,61.90
2022-09-12T18:51:39.666Z,61.80
2022-09-12T18:54:17.422Z,62.24
2022-09-12T18:56:48.608Z,62.21
2022-09-12T18:59:17.821Z,62.51
2022-09-12T19:01:47.637Z,62.39
2022-09-12T19:04:22.031Z,62.41
2022-09-12T19:06:51.337Z,62.67
2022-09-12T19:09:22.477Z,63.03
2022-09-12T19:11:53.769Z,63.07
2022-09-12T19:14:25.868Z,62.46
2022-09-12T19:16:55.177Z,63.03
2022-09-12T19:19:24.426Z,62.71
2022-09-12T19:22:05.305Z,63.03
2022-09-12T19:24:34.957Z,62.86
2022-09-12T19:27:07.343Z,62.99
2022-09-12T19:29:36.689Z,62.93
2022-09-12T19:32:06.049Z,63.48
2022-09-12T19:34:35.397Z,63.38
2022-09-12T19:37:05.114Z,63.47
2022-09-12T19:39:34.622Z,63.67
2022-09-12T19:42:06.412Z,63.57
2022-09-12T19:44:35.244Z,63.30
2022-09-12T19:47:04.368Z,63.25
2022-09-12T19:49:43.880Z,63.40
2022-09-12T19:52:17.237Z,63.63
2022-09-12T19:54:51.854Z,64.16
2022-09-12T19:57:22.861Z,63.93
2022-09-12T19:59:52.050Z,64.08
2022-09-12T20:02:21.687Z,64.49
2022-09-12T20:04:51.114Z,64.40
2022-09-12T20:07:25.364Z,65.14
2022-09-12T20:09:55.133Z,64.80
2022-09-12T20:12:33.709Z,64.84
2022-09-12T20:15:03.024Z,64.76
2022-09-12T20:17:32.460Z,65.50
2022-09-12T20:20:01.808Z,64.78
2022-09-12T20:22:34.734Z,65.16
2022-09-12T20:25:11.714Z,64.99
2022-09-12T20:27:42.823Z,65.30
2022-09-12T20:30:14.145Z,65.27
2022-09-12T20:32:44.217Z,65.39
2022-09-12T20:35:16.943Z,65.70
2022-09-12T20:37:46.573Z,66.01
2022-09-12T20:40:15.832Z,65.34
2022-09-12T20:42:47.130Z,65.96
2022-09-12T20:45:16.424Z,65.57
2022-09-12T20:47:45.636Z,65.63
2022-09-12T20:50:14.862Z,66.25
2022-09-12T20:52:45.805Z,66.84
2022-09-12T20:55:15.058Z,65.98
2022-09-12T20:57:44.145Z,65.76
2022-09-12T21:00:16.408Z,66.56
2022-09-12T21:02:45.788Z,66.12
2022-09-12T21:05:15.100Z,65.83
2022-09-12T21:07:44.212Z,66.12
2022-09-12T21:10:13.424Z,66.16
2022-09-12T21:12:42.550Z,65.86
2022-09-12T21:15:12.203Z,66.20
2022-09-12T21:17:43.274Z,66.50
2022-09-12T21:20:12.967Z,66.14
2022-09-12T21:22:44.088Z,66.58
2022-09-12T21:25:13.492Z,66.33
2022-09-12T21:27:47.625Z,66.66
2022-09-12T21:30:17.233Z,66.36
2022-09-12T21:32:48.354Z,66.87
2022-09-12T21:35:17.834Z,66.39
2022-09-12T21:37:53.436Z,66.59
2022-09-12T21:40:22.672Z,66.82
2022-09-12T21:42:51.817Z,66.67
2022-09-12T21:45:21.276Z,66.19
2022-09-12T21:47:52.421Z,66.33
2022-09-12T21:50:21.969Z,66.30
2022-09-12T21:52:51.045Z,66.11
2022-09-12T21:55:26.826Z,66.43
2022-09-12T21:57:56.199Z,66.02
2022-09-12T22:00:25.392Z,66.51
2022-09-12T22:02:56.841Z,66.39
2022-09-12T22:05:29.502Z,66.29
2022-09-12T22:08:04.494Z,66.02
2022-09-12T22:10:33.721Z,66.29
2022-09-12T22:13:02.916Z,66.20
2022-09-12T22:15:40.430Z,66.94
2022-09-12T22:18:12.485Z,67.12
2022-09-12T22:20:41.700Z,67.20
2022-09-12T22:23:26.245Z,66.98
2022-09-12T22:26:02.001Z,66.81
2022-09-12T22:28:31.729Z,67.20
2022-09-12T22:31:00.908Z,67.39
2022-09-12T22:33:32.444Z,67.65
2022-09-12T22:36:01.993Z,67.72
2022-09-12T22:38:30.993Z,68.07
2022-09-12T22:41:06.358Z,68.26
2022-09-12T22:43:42.268Z,68.62
2022-09-12T22:46:17.776Z,68.96
2022-09-12T22:48:48.859Z,69.28
2022-09-12T22:51:18.600Z,69.83
2022-09-12T22:53:47.811Z,70.33
2022-09-12T22:56:17.032Z,71.05
2022-09-12T22:58:46.212Z,71.21
2022-09-12T23:01:16.418Z,71.45
2022-09-12T23:03:45.963Z,71.39
2022-09-12T23:06:17.162Z,71.17
2022-09-12T23:08:46.332Z,71.20
2022-09-12T23:11:17.437Z,70.76
2022-09-12T23:13:53.972Z,70.78
2022-09-12T23:16:29.803Z,70.25
2022-09-12T23:19:03.982Z,70.27
2022-09-12T23:21:35.396Z,70.86
2022-09-12T23:24:05.020Z,70.29
2022-09-12T23:26:34.074Z,70.55
2022-09-12T23:29:05.609Z,70.78
2022-09-12T23:31:37.220Z,70.53
2022-09-12T23:34:12.235Z,70.33
2022-09-12T23:36:43.233Z,70.21
2022-09-12T23:39:12.536Z,70.71
2022-09-12T23:41:42.547Z,70.54
2022-09-12T23:44:11.806Z,70.88
2022-09-12T23:46:40.895Z,71.41
2022-09-12T23:49:10.261Z,71.31
2022-09-12T23:51:44.328Z,71.35
2022-09-12T23:54:15.750Z,71.15
2022-09-12T23:56:45.177Z,71.06
2022-09-12T23:59:14.224Z,71.57
